sensor_id;sensor_type;location;lat;lon;timestamp;P1;durP1;ratioP1;P2;durP2;ratioP2
43744;SDS011;29359;53.048;8.732;2023-04-03T00:00:08;3.28;;;1.00;;
43744;SDS011;29359;53.048;8.732;2023-04-03T00:02:10;3.60;;;1.00;;
43744;SDS011;29359;53.048;8.732;2023-04-03T00:04:12;4.13;;;0.95;;
43744;SDS011;29359;53.048;8.732;2023-04-03T00:06:13;8.52;;;1.10;;
43744;SDS011;29359;53.048;8.732;2023-04-03T00:08:15;2.13;;;1.20;;
43744;SDS011;29359;53.048;8.732;2023-04-03T00:10:16;5.15;;;0.98;;
43744;SDS011;29359;53.048;8.732;2023-04-03T00:12:18;9.63;;;1.25;;
43744;SDS011;29359;53.048;8.732;2023-04-03T00:14:20;7.30;;;1.40;;
43744;SDS011;29359;53.048;8.732;2023-04-03T00:16:21;4.05;;;1.30;;
43744;SDS011;29359;53.048;8.732;2023-04-03T00:18:23;5.10;;;1.17;;
43744;SDS011;29359;53.048;8.732;2023-04-03T00:20:25;3.25;;;1.27;;
43744;SDS011;29359;53.048;8.732;2023-04-03T00:22:27;5.07;;;1.70;;
43744;SDS011;29359;53.048;8.732;2023-04-03T00:24:29;7.20;;;1.40;;
43744;SDS011;29359;53.048;8.732;2023-04-03T00:26:31;3.85;;;1.27;;
43744;SDS011;29359;53.048;8.732;2023-04-03T00:28:32;6.78;;;1.13;;
43744;SDS011;29359;53.048;8.732;2023-04-03T00:30:34;5.68;;;1.20;;
43744;SDS011;29359;53.048;8.732;2023-04-03T00:32:36;3.45;;;1.10;;
43744;SDS011;29359;53.048;8.732;2023-04-03T00:34:38;2.85;;;1.10;;
43744;SDS011;29359;53.048;8.732;2023-04-03T00:36:39;4.25;;;1.40;;
43744;SDS011;29359;53.048;8.732;2023-04-03T00:38:41;5.20;;;1.58;;
43744;SDS011;29359;53.048;8.732;2023-04-03T00:40:43;5.90;;;1.65;;
43744;SDS011;29359;53.048;8.732;2023-04-03T00:42:48;7.68;;;1.50;;
43744;SDS011;29359;53.048;8.732;2023-04-03T00:46:54;3.47;;;1.25;;
43744;SDS011;29359;53.048;8.732;2023-04-03T00:48:55;4.70;;;1.50;;
43744;SDS011;29359;53.048;8.732;2023-04-03T00:50:57;2.85;;;1.30;;
43744;SDS011;29359;53.048;8.732;2023-04-03T00:53:00;3.65;;;1.10;;
43744;SDS011;29359;53.048;8.732;2023-04-03T00:55:03;5.93;;;1.55;;
43744;SDS011;29359;53.048;8.732;2023-04-03T00:57:09;5.07;;;1.48;;
43744;SDS011;29359;53.048;8.732;2023-04-03T00:59:16;6.97;;;1.48;;
43744;SDS011;29359;53.048;8.732;2023-04-03T01:01:25;5.65;;;1.30;;
43744;SDS011;29359;53.048;8.732;2023-04-03T01:03:28;10.55;;;2.38;;
43744;SDS011;29359;53.048;8.732;2023-04-03T01:05:29;5.95;;;1.50;;
43744;SDS011;29359;53.048;8.732;2023-04-03T01:07:31;3.78;;;1.67;;
43744;SDS011;29359;53.048;8.732;2023-04-03T01:09:35;1.73;;;1.10;;
43744;SDS011;29359;53.048;8.732;2023-04-03T01:11:38;5.85;;;1.60;;
43744;SDS011;29359;53.048;8.732;2023-04-03T01:13:39;4.75;;;1.73;;
43744;SDS011;29359;53.048;8.732;2023-04-03T01:15:41;3.78;;;1.40;;
43744;SDS011;29359;53.048;8.732;2023-04-03T01:17:50;8.43;;;2.03;;
43744;SDS011;29359;53.048;8.732;2023-04-03T01:22:26;2.47;;;1.13;;
43744;SDS011;29359;53.048;8.732;2023-04-03T01:24:36;8.52;;;2.17;;
43744;SDS011;29359;53.048;8.732;2023-04-03T01:26:40;6.70;;;1.35;;
43744;SDS011;29359;53.048;8.732;2023-04-03T01:28:42;3.63;;;1.60;;
43744;SDS011;29359;53.048;8.732;2023-04-03T01:30:46;9.10;;;1.65;;
43744;SDS011;29359;53.048;8.732;2023-04-03T01:32:52;2.67;;;1.17;;
43744;SDS011;29359;53.048;8.732;2023-04-03T01:34:53;4.03;;;1.40;;
43744;SDS011;29359;53.048;8.732;2023-04-03T01:36:55;4.50;;;1.33;;
43744;SDS011;29359;53.048;8.732;2023-04-03T01:38:57;4.93;;;1.45;;
43744;SDS011;29359;53.048;8.732;2023-04-03T01:41:00;4.05;;;1.63;;
43744;SDS011;29359;53.048;8.732;2023-04-03T01:43:02;4.45;;;1.50;;
43744;SDS011;29359;53.048;8.732;2023-04-03T01:45:03;3.95;;;1.30;;
43744;SDS011;29359;53.048;8.732;2023-04-03T01:47:06;8.18;;;1.80;;
43744;SDS011;29359;53.048;8.732;2023-04-03T01:49:08;3.40;;;1.40;;
43744;SDS011;29359;53.048;8.732;2023-04-03T01:51:10;4.75;;;1.48;;
43744;SDS011;29359;53.048;8.732;2023-04-03T01:53:12;4.28;;;1.42;;
43744;SDS011;29359;53.048;8.732;2023-04-03T01:55:14;5.65;;;1.50;;
43744;SDS011;29359;53.048;8.732;2023-04-03T01:57:16;5.15;;;1.85;;
43744;SDS011;29359;53.048;8.732;2023-04-03T01:59:17;3.85;;;2.30;;
43744;SDS011;29359;53.048;8.732;2023-04-03T02:01:20;6.30;;;2.88;;
43744;SDS011;29359;53.048;8.732;2023-04-03T02:03:22;16.15;;;5.03;;
43744;SDS011;29359;53.048;8.732;2023-04-03T02:05:23;8.98;;;4.40;;
43744;SDS011;29359;53.048;8.732;2023-04-03T02:07:25;8.02;;;3.50;;
43744;SDS011;29359;53.048;8.732;2023-04-03T02:09:27;8.93;;;4.07;;
43744;SDS011;29359;53.048;8.732;2023-04-03T02:11:28;5.95;;;2.97;;
43744;SDS011;29359;53.048;8.732;2023-04-03T02:13:30;8.88;;;2.97;;
43744;SDS011;29359;53.048;8.732;2023-04-03T02:15:31;6.28;;;2.67;;
43744;SDS011;29359;53.048;8.732;2023-04-03T02:17:33;6.05;;;2.70;;
43744;SDS011;29359;53.048;8.732;2023-04-03T02:19:36;9.60;;;2.80;;
43744;SDS011;29359;53.048;8.732;2023-04-03T02:21:37;8.30;;;2.50;;
43744;SDS011;29359;53.048;8.732;2023-04-03T02:23:39;7.53;;;2.45;;
43744;SDS011;29359;53.048;8.732;2023-04-03T02:25:40;6.32;;;2.28;;
43744;SDS011;29359;53.048;8.732;2023-04-03T02:27:42;5.43;;;2.40;;
43744;SDS011;29359;53.048;8.732;2023-04-03T02:29:44;6.82;;;1.92;;
43744;SDS011;29359;53.048;8.732;2023-04-03T02:31:45;9.00;;;1.83;;
43744;SDS011;29359;53.048;8.732;2023-04-03T02:33:47;6.88;;;2.38;;
43744;SDS011;29359;53.048;8.732;2023-04-03T02:35:52;3.60;;;2.00;;
43744;SDS011;29359;53.048;8.732;2023-04-03T02:37:54;4.13;;;1.80;;
43744;SDS011;29359;53.048;8.732;2023-04-03T02:39:56;7.60;;;1.90;;
43744;SDS011;29359;53.048;8.732;2023-04-03T02:41:58;6.15;;;1.60;;
43744;SDS011;29359;53.048;8.732;2023-04-03T02:44:00;7.00;;;1.58;;
43744;SDS011;29359;53.048;8.732;2023-04-03T02:46:05;7.90;;;1.75;;
43744;SDS011;29359;53.048;8.732;2023-04-03T02:48:08;4.00;;;1.67;;
43744;SDS011;29359;53.048;8.732;2023-04-03T02:50:09;8.43;;;1.95;;
43744;SDS011;29359;53.048;8.732;2023-04-03T02:52:12;4.43;;;1.73;;
43744;SDS011;29359;53.048;8.732;2023-04-03T02:54:14;4.15;;;1.17;;
43744;SDS011;29359;53.048;8.732;2023-04-03T02:56:16;8.27;;;1.65;;
43744;SDS011;29359;53.048;8.732;2023-04-03T02:58:19;2.03;;;1.13;;
43744;SDS011;29359;53.048;8.732;2023-04-03T03:00:20;14.50;;;1.77;;
43744;SDS011;29359;53.048;8.732;2023-04-03T03:02:22;6.60;;;1.83;;
43744;SDS011;29359;53.048;8.732;2023-04-03T03:04:23;7.55;;;1.73;;
43744;SDS011;29359;53.048;8.732;2023-04-03T03:06:25;5.13;;;1.60;;
43744;SDS011;29359;53.048;8.732;2023-04-03T03:08:27;5.40;;;1.80;;
43744;SDS011;29359;53.048;8.732;2023-04-03T03:10:28;2.80;;;1.50;;
43744;SDS011;29359;53.048;8.732;2023-04-03T03:12:30;8.73;;;1.23;;
43744;SDS011;29359;53.048;8.732;2023-04-03T03:14:33;6.95;;;1.98;;
43744;SDS011;29359;53.048;8.732;2023-04-03T03:16:35;4.80;;;1.40;;
43744;SDS011;29359;53.048;8.732;2023-04-03T03:18:37;3.10;;;1.33;;
43744;SDS011;29359;53.048;8.732;2023-04-03T03:20:38;4.55;;;1.60;;
43744;SDS011;29359;53.048;8.732;2023-04-03T03:22:40;5.05;;;1.42;;
43744;SDS011;29359;53.048;8.732;2023-04-03T03:24:42;3.20;;;1.48;;
43744;SDS011;29359;53.048;8.732;2023-04-03T03:26:43;3.25;;;1.60;;
43744;SDS011;29359;53.048;8.732;2023-04-03T03:28:45;5.68;;;1.77;;
43744;SDS011;29359;53.048;8.732;2023-04-03T03:30:47;8.18;;;1.63;;
43744;SDS011;29359;53.048;8.732;2023-04-03T03:32:49;2.97;;;1.10;;
43744;SDS011;29359;53.048;8.732;2023-04-03T03:34:50;3.92;;;1.90;;
43744;SDS011;29359;53.048;8.732;2023-04-03T03:36:52;4.50;;;1.50;;
43744;SDS011;29359;53.048;8.732;2023-04-03T03:38:53;3.65;;;1.25;;
43744;SDS011;29359;53.048;8.732;2023-04-03T03:40:55;4.38;;;1.45;;
43744;SDS011;29359;53.048;8.732;2023-04-03T03:42:57;4.35;;;1.85;;
43744;SDS011;29359;53.048;8.732;2023-04-03T03:44:58;3.33;;;1.30;;
43744;SDS011;29359;53.048;8.732;2023-04-03T03:47:00;3.28;;;1.60;;
43744;SDS011;29359;53.048;8.732;2023-04-03T03:49:01;7.70;;;1.65;;
43744;SDS011;29359;53.048;8.732;2023-04-03T03:51:03;5.13;;;1.25;;
43744;SDS011;29359;53.048;8.732;2023-04-03T03:53:04;4.40;;;1.25;;
43744;SDS011;29359;53.048;8.732;2023-04-03T03:55:06;9.52;;;1.40;;
43744;SDS011;29359;53.048;8.732;2023-04-03T03:57:08;6.75;;;1.98;;
43744;SDS011;29359;53.048;8.732;2023-04-03T03:59:11;4.55;;;1.27;;
43744;SDS011;29359;53.048;8.732;2023-04-03T04:01:13;4.43;;;1.58;;
43744;SDS011;29359;53.048;8.732;2023-04-03T04:03:15;4.90;;;1.67;;
43744;SDS011;29359;53.048;8.732;2023-04-03T04:05:17;5.40;;;1.60;;
43744;SDS011;29359;53.048;8.732;2023-04-03T04:07:19;4.28;;;1.60;;
43744;SDS011;29359;53.048;8.732;2023-04-03T04:09:20;8.88;;;1.52;;
43744;SDS011;29359;53.048;8.732;2023-04-03T04:11:22;3.78;;;1.30;;
43744;SDS011;29359;53.048;8.732;2023-04-03T04:13:24;5.13;;;1.52;;
43744;SDS011;29359;53.048;8.732;2023-04-03T04:15:25;6.28;;;1.45;;
43744;SDS011;29359;53.048;8.732;2023-04-03T04:17:28;5.05;;;1.45;;
43744;SDS011;29359;53.048;8.732;2023-04-03T04:19:29;4.30;;;1.50;;
43744;SDS011;29359;53.048;8.732;2023-04-03T04:21:31;5.85;;;1.30;;
43744;SDS011;29359;53.048;8.732;2023-04-03T04:23:32;7.00;;;1.27;;
43744;SDS011;29359;53.048;8.732;2023-04-03T04:25:34;5.82;;;1.58;;
43744;SDS011;29359;53.048;8.732;2023-04-03T04:27:36;3.55;;;1.52;;
43744;SDS011;29359;53.048;8.732;2023-04-03T04:29:38;6.28;;;1.45;;
43744;SDS011;29359;53.048;8.732;2023-04-03T04:31:39;4.80;;;1.23;;
43744;SDS011;29359;53.048;8.732;2023-04-03T04:33:41;6.38;;;1.67;;
43744;SDS011;29359;53.048;8.732;2023-04-03T04:35:42;5.50;;;1.42;;
43744;SDS011;29359;53.048;8.732;2023-04-03T04:37:44;9.82;;;1.60;;
43744;SDS011;29359;53.048;8.732;2023-04-03T04:39:46;5.97;;;2.72;;
43744;SDS011;29359;53.048;8.732;2023-04-03T04:41:48;7.53;;;1.98;;
43744;SDS011;29359;53.048;8.732;2023-04-03T04:43:49;7.93;;;1.90;;
43744;SDS011;29359;53.048;8.732;2023-04-03T04:46:04;4.05;;;1.60;;
43744;SDS011;29359;53.048;8.732;2023-04-03T04:48:08;4.65;;;2.20;;
43744;SDS011;29359;53.048;8.732;2023-04-03T04:50:10;4.72;;;1.90;;
43744;SDS011;29359;53.048;8.732;2023-04-03T04:52:12;10.48;;;1.63;;
43744;SDS011;29359;53.048;8.732;2023-04-03T04:54:14;5.72;;;1.45;;
43744;SDS011;29359;53.048;8.732;2023-04-03T04:56:16;6.68;;;1.60;;
43744;SDS011;29359;53.048;8.732;2023-04-03T04:58:18;4.45;;;1.27;;
43744;SDS011;29359;53.048;8.732;2023-04-03T05:00:20;9.63;;;2.65;;
43744;SDS011;29359;53.048;8.732;2023-04-03T05:02:21;6.63;;;2.20;;
43744;SDS011;29359;53.048;8.732;2023-04-03T05:04:23;8.38;;;3.17;;
43744;SDS011;29359;53.048;8.732;2023-04-03T05:06:24;4.93;;;1.60;;
43744;SDS011;29359;53.048;8.732;2023-04-03T05:08:26;6.63;;;1.80;;
43744;SDS011;29359;53.048;8.732;2023-04-03T05:10:28;5.32;;;1.80;;
43744;SDS011;29359;53.048;8.732;2023-04-03T05:12:29;8.27;;;1.67;;
43744;SDS011;29359;53.048;8.732;2023-04-03T05:14:31;8.52;;;1.45;;
43744;SDS011;29359;53.048;8.732;2023-04-03T05:16:33;4.75;;;1.45;;
43744;SDS011;29359;53.048;8.732;2023-04-03T05:18:35;9.75;;;1.55;;
43744;SDS011;29359;53.048;8.732;2023-04-03T05:20:37;3.35;;;1.27;;
43744;SDS011;29359;53.048;8.732;2023-04-03T05:22:38;5.97;;;1.40;;
43744;SDS011;29359;53.048;8.732;2023-04-03T05:24:40;3.97;;;1.33;;
43744;SDS011;29359;53.048;8.732;2023-04-03T05:26:42;4.40;;;1.33;;
43744;SDS011;29359;53.048;8.732;2023-04-03T05:28:44;4.40;;;1.40;;
43744;SDS011;29359;53.048;8.732;2023-04-03T05:30:52;7.78;;;1.50;;
43744;SDS011;29359;53.048;8.732;2023-04-03T05:32:54;13.05;;;1.95;;
43744;SDS011;29359;53.048;8.732;2023-04-03T05:34:59;8.38;;;1.75;;
43744;SDS011;29359;53.048;8.732;2023-04-03T05:37:01;8.63;;;1.63;;
43744;SDS011;29359;53.048;8.732;2023-04-03T05:39:04;8.57;;;1.60;;
43744;SDS011;29359;53.048;8.732;2023-04-03T05:41:06;10.93;;;1.83;;
43744;SDS011;29359;53.048;8.732;2023-04-03T05:43:07;5.05;;;1.67;;
43744;SDS011;29359;53.048;8.732;2023-04-03T05:45:09;4.85;;;1.88;;
43744;SDS011;29359;53.048;8.732;2023-04-03T05:47:11;8.40;;;2.30;;
43744;SDS011;29359;53.048;8.732;2023-04-03T05:49:12;12.07;;;1.77;;
43744;SDS011;29359;53.048;8.732;2023-04-03T05:51:18;2.63;;;1.55;;
43744;SDS011;29359;53.048;8.732;2023-04-03T05:53:24;6.03;;;1.65;;
43744;SDS011;29359;53.048;8.732;2023-04-03T05:55:29;7.68;;;1.95;;
43744;SDS011;29359;53.048;8.732;2023-04-03T05:57:30;5.68;;;1.70;;
43744;SDS011;29359;53.048;8.732;2023-04-03T05:59:32;8.90;;;1.95;;
43744;SDS011;29359;53.048;8.732;2023-04-03T06:01:34;9.32;;;2.15;;
43744;SDS011;29359;53.048;8.732;2023-04-03T06:03:35;11.40;;;1.88;;
43744;SDS011;29359;53.048;8.732;2023-04-03T06:05:40;6.60;;;1.60;;
43744;SDS011;29359;53.048;8.732;2023-04-03T06:07:42;1.48;;;1.27;;
43744;SDS011;29359;53.048;8.732;2023-04-03T06:09:45;7.38;;;1.90;;
43744;SDS011;29359;53.048;8.732;2023-04-03T06:11:47;12.25;;;1.73;;
43744;SDS011;29359;53.048;8.732;2023-04-03T06:13:48;10.90;;;1.90;;
43744;SDS011;29359;53.048;8.732;2023-04-03T06:15:50;6.10;;;1.60;;
43744;SDS011;29359;53.048;8.732;2023-04-03T06:17:51;9.45;;;1.83;;
43744;SDS011;29359;53.048;8.732;2023-04-03T06:19:53;7.45;;;1.58;;
43744;SDS011;29359;53.048;8.732;2023-04-03T06:21:55;9.70;;;1.98;;
43744;SDS011;29359;53.048;8.732;2023-04-03T06:23:56;6.45;;;2.42;;
43744;SDS011;29359;53.048;8.732;2023-04-03T06:25:57;9.70;;;2.28;;
43744;SDS011;29359;53.048;8.732;2023-04-03T06:27:59;9.63;;;1.80;;
43744;SDS011;29359;53.048;8.732;2023-04-03T06:30:01;5.18;;;2.03;;
43744;SDS011;29359;53.048;8.732;2023-04-03T06:32:02;3.65;;;1.23;;
43744;SDS011;29359;53.048;8.732;2023-04-03T06:34:04;5.30;;;1.60;;
43744;SDS011;29359;53.048;8.732;2023-04-03T06:36:10;6.38;;;1.35;;
43744;SDS011;29359;53.048;8.732;2023-04-03T06:38:12;7.88;;;1.50;;
43744;SDS011;29359;53.048;8.732;2023-04-03T06:40:24;4.35;;;1.42;;
43744;SDS011;29359;53.048;8.732;2023-04-03T06:42:27;2.22;;;1.30;;
43744;SDS011;29359;53.048;8.732;2023-04-03T06:44:29;7.60;;;2.13;;
43744;SDS011;29359;53.048;8.732;2023-04-03T06:46:30;3.33;;;1.30;;
43744;SDS011;29359;53.048;8.732;2023-04-03T06:48:32;5.43;;;1.33;;
43744;SDS011;29359;53.048;8.732;2023-04-03T06:50:33;4.47;;;1.45;;
43744;SDS011;29359;53.048;8.732;2023-04-03T06:52:35;3.95;;;1.20;;
43744;SDS011;29359;53.048;8.732;2023-04-03T06:54:37;7.80;;;2.25;;
43744;SDS011;29359;53.048;8.732;2023-04-03T06:56:39;7.80;;;1.13;;
43744;SDS011;29359;53.048;8.732;2023-04-03T06:58:40;5.93;;;1.15;;
43744;SDS011;29359;53.048;8.732;2023-04-03T07:00:42;3.70;;;1.40;;
43744;SDS011;29359;53.048;8.732;2023-04-03T07:02:44;4.28;;;1.20;;
43744;SDS011;29359;53.048;8.732;2023-04-03T07:04:46;5.35;;;1.67;;
43744;SDS011;29359;53.048;8.732;2023-04-03T07:06:48;6.18;;;1.48;;
43744;SDS011;29359;53.048;8.732;2023-04-03T07:08:49;3.35;;;1.50;;
43744;SDS011;29359;53.048;8.732;2023-04-03T07:10:51;3.40;;;1.17;;
43744;SDS011;29359;53.048;8.732;2023-04-03T07:12:53;4.70;;;1.20;;
43744;SDS011;29359;53.048;8.732;2023-04-03T07:14:54;7.90;;;1.10;;
43744;SDS011;29359;53.048;8.732;2023-04-03T07:16:55;4.20;;;1.05;;
43744;SDS011;29359;53.048;8.732;2023-04-03T07:18:57;2.80;;;0.93;;
43744;SDS011;29359;53.048;8.732;2023-04-03T07:20:59;3.10;;;1.17;;
43744;SDS011;29359;53.048;8.732;2023-04-03T07:23:01;6.05;;;1.30;;
43744;SDS011;29359;53.048;8.732;2023-04-03T07:25:04;4.63;;;0.80;;
43744;SDS011;29359;53.048;8.732;2023-04-03T07:27:08;2.97;;;0.82;;
43744;SDS011;29359;53.048;8.732;2023-04-03T07:29:10;1.90;;;0.93;;
43744;SDS011;29359;53.048;8.732;2023-04-03T07:31:12;3.75;;;1.05;;
43744;SDS011;29359;53.048;8.732;2023-04-03T07:33:15;7.50;;;1.17;;
43744;SDS011;29359;53.048;8.732;2023-04-03T07:35:17;4.00;;;1.20;;
43744;SDS011;29359;53.048;8.732;2023-04-03T07:37:20;2.47;;;0.93;;
43744;SDS011;29359;53.048;8.732;2023-04-03T07:39:21;2.33;;;1.70;;
43744;SDS011;29359;53.048;8.732;2023-04-03T07:41:23;4.00;;;1.38;;
43744;SDS011;29359;53.048;8.732;2023-04-03T07:43:24;2.30;;;0.98;;
43744;SDS011;29359;53.048;8.732;2023-04-03T07:45:26;3.00;;;0.80;;
43744;SDS011;29359;53.048;8.732;2023-04-03T07:47:28;4.07;;;1.15;;
43744;SDS011;29359;53.048;8.732;2023-04-03T07:49:29;5.05;;;1.38;;
43744;SDS011;29359;53.048;8.732;2023-04-03T07:51:31;5.03;;;0.88;;
43744;SDS011;29359;53.048;8.732;2023-04-03T07:53:32;4.00;;;1.23;;
43744;SDS011;29359;53.048;8.732;2023-04-03T07:55:34;4.22;;;0.90;;
43744;SDS011;29359;53.048;8.732;2023-04-03T07:57:41;4.18;;;0.70;;
43744;SDS011;29359;53.048;8.732;2023-04-03T07:59:43;3.05;;;0.70;;
43744;SDS011;29359;53.048;8.732;2023-04-03T08:01:45;3.03;;;0.77;;
43744;SDS011;29359;53.048;8.732;2023-04-03T08:03:46;5.25;;;0.82;;
43744;SDS011;29359;53.048;8.732;2023-04-03T08:05:49;3.65;;;0.90;;
43744;SDS011;29359;53.048;8.732;2023-04-03T08:07:51;1.33;;;0.90;;
43744;SDS011;29359;53.048;8.732;2023-04-03T08:09:53;1.40;;;0.77;;
43744;SDS011;29359;53.048;8.732;2023-04-03T08:11:54;2.97;;;0.85;;
43744;SDS011;29359;53.048;8.732;2023-04-03T08:13:56;2.53;;;1.00;;
43744;SDS011;29359;53.048;8.732;2023-04-03T08:16:06;6.40;;;0.70;;
43744;SDS011;29359;53.048;8.732;2023-04-03T08:18:09;2.22;;;0.95;;
43744;SDS011;29359;53.048;8.732;2023-04-03T08:20:11;1.52;;;0.73;;
43744;SDS011;29359;53.048;8.732;2023-04-03T08:22:13;4.78;;;1.08;;
43744;SDS011;29359;53.048;8.732;2023-04-03T08:24:14;5.93;;;1.20;;
43744;SDS011;29359;53.048;8.732;2023-04-03T08:26:17;2.05;;;0.60;;
43744;SDS011;29359;53.048;8.732;2023-04-03T08:28:22;4.43;;;0.93;;
43744;SDS011;29359;53.048;8.732;2023-04-03T08:32:29;2.13;;;0.57;;
43744;SDS011;29359;53.048;8.732;2023-04-03T08:34:31;2.75;;;0.85;;
43744;SDS011;29359;53.048;8.732;2023-04-03T08:36:35;2.95;;;0.98;;
43744;SDS011;29359;53.048;8.732;2023-04-03T08:38:37;2.92;;;0.73;;
43744;SDS011;29359;53.048;8.732;2023-04-03T08:40:39;2.28;;;0.80;;
43744;SDS011;29359;53.048;8.732;2023-04-03T08:44:59;1.52;;;0.50;;
43744;SDS011;29359;53.048;8.732;2023-04-03T08:51:32;2.83;;;0.75;;
43744;SDS011;29359;53.048;8.732;2023-04-03T08:53:34;4.72;;;0.70;;
43744;SDS011;29359;53.048;8.732;2023-04-03T08:55:49;4.25;;;0.60;;
43744;SDS011;29359;53.048;8.732;2023-04-03T08:58:05;1.40;;;0.77;;
43744;SDS011;29359;53.048;8.732;2023-04-03T09:02:27;1.33;;;0.80;;
43744;SDS011;29359;53.048;8.732;2023-04-03T09:04:35;1.75;;;0.60;;
43744;SDS011;29359;53.048;8.732;2023-04-03T09:06:37;5.47;;;0.73;;
43744;SDS011;29359;53.048;8.732;2023-04-03T09:08:45;3.58;;;0.80;;
43744;SDS011;29359;53.048;8.732;2023-04-03T09:12:57;2.50;;;0.60;;
43744;SDS011;29359;53.048;8.732;2023-04-03T09:22:27;1.45;;;0.65;;
43744;SDS011;29359;53.048;8.732;2023-04-03T09:24:34;1.77;;;0.65;;
43744;SDS011;29359;53.048;8.732;2023-04-03T09:26:48;2.28;;;0.93;;
43744;SDS011;29359;53.048;8.732;2023-04-03T09:28:57;4.00;;;1.08;;
43744;SDS011;29359;53.048;8.732;2023-04-03T09:31:09;2.00;;;0.70;;
43744;SDS011;29359;53.048;8.732;2023-04-03T09:33:17;1.20;;;0.70;;
43744;SDS011;29359;53.048;8.732;2023-04-03T09:35:26;3.28;;;0.68;;
43744;SDS011;29359;53.048;8.732;2023-04-03T09:37:49;1.85;;;0.70;;
43744;SDS011;29359;53.048;8.732;2023-04-03T09:39:53;2.22;;;0.60;;
43744;SDS011;29359;53.048;8.732;2023-04-03T09:42:15;1.20;;;0.60;;
43744;SDS011;29359;53.048;8.732;2023-04-03T09:44:24;1.10;;;0.50;;
43744;SDS011;29359;53.048;8.732;2023-04-03T09:48:34;1.65;;;0.57;;
43744;SDS011;29359;53.048;8.732;2023-04-03T09:50:36;6.55;;;0.65;;
43744;SDS011;29359;53.048;8.732;2023-04-03T09:52:38;1.80;;;0.60;;
43744;SDS011;29359;53.048;8.732;2023-04-03T09:54:45;1.95;;;0.63;;
43744;SDS011;29359;53.048;8.732;2023-04-03T09:56:50;2.60;;;0.70;;
43744;SDS011;29359;53.048;8.732;2023-04-03T10:01:01;1.23;;;0.60;;
43744;SDS011;29359;53.048;8.732;2023-04-03T10:03:04;1.45;;;0.52;;
43744;SDS011;29359;53.048;8.732;2023-04-03T10:05:28;2.65;;;0.70;;
43744;SDS011;29359;53.048;8.732;2023-04-03T10:07:40;2.15;;;0.50;;
43744;SDS011;29359;53.048;8.732;2023-04-03T10:09:55;1.17;;;0.60;;
43744;SDS011;29359;53.048;8.732;2023-04-03T10:14:10;1.35;;;0.50;;
43744;SDS011;29359;53.048;8.732;2023-04-03T10:16:20;2.30;;;0.52;;
43744;SDS011;29359;53.048;8.732;2023-04-03T10:20:51;0.55;;;0.40;;
43744;SDS011;29359;53.048;8.732;2023-04-03T10:23:00;2.60;;;0.60;;
43744;SDS011;29359;53.048;8.732;2023-04-03T10:34:56;1.55;;;0.50;;
43744;SDS011;29359;53.048;8.732;2023-04-03T10:46:41;1.10;;;0.50;;
43744;SDS011;29359;53.048;8.732;2023-04-03T10:49:00;1.75;;;0.60;;
43744;SDS011;29359;53.048;8.732;2023-04-03T10:58:18;1.23;;;0.32;;
43744;SDS011;29359;53.048;8.732;2023-04-03T11:00:42;4.32;;;0.40;;
43744;SDS011;29359;53.048;8.732;2023-04-03T11:02:51;0.63;;;0.40;;
43744;SDS011;29359;53.048;8.732;2023-04-03T11:04:59;1.42;;;0.55;;
43744;SDS011;29359;53.048;8.732;2023-04-03T11:07:19;1.15;;;0.50;;
43744;SDS011;29359;53.048;8.732;2023-04-03T11:09:28;1.00;;;0.40;;
43744;SDS011;29359;53.048;8.732;2023-04-03T11:11:38;3.05;;;0.60;;
43744;SDS011;29359;53.048;8.732;2023-04-03T11:13:56;2.38;;;1.00;;
43744;SDS011;29359;53.048;8.732;2023-04-03T11:16:06;3.67;;;0.70;;
43744;SDS011;29359;53.048;8.732;2023-04-03T11:18:16;3.30;;;0.60;;
43744;SDS011;29359;53.048;8.732;2023-04-03T11:20:29;4.38;;;0.40;;
43744;SDS011;29359;53.048;8.732;2023-04-03T11:22:41;1.90;;;0.82;;
43744;SDS011;29359;53.048;8.732;2023-04-03T11:24:46;2.35;;;0.55;;
43744;SDS011;29359;53.048;8.732;2023-04-03T11:26:58;1.02;;;0.68;;
43744;SDS011;29359;53.048;8.732;2023-04-03T11:29:06;1.52;;;0.70;;
43744;SDS011;29359;53.048;8.732;2023-04-03T11:31:33;1.20;;;0.50;;
43744;SDS011;29359;53.048;8.732;2023-04-03T11:36:19;2.70;;;0.55;;
43744;SDS011;29359;53.048;8.732;2023-04-03T11:38:37;1.00;;;0.50;;
43744;SDS011;29359;53.048;8.732;2023-04-03T11:40:44;1.30;;;0.70;;
43744;SDS011;29359;53.048;8.732;2023-04-03T11:42:52;1.80;;;0.70;;
43744;SDS011;29359;53.048;8.732;2023-04-03T11:47:44;1.80;;;0.80;;
43744;SDS011;29359;53.048;8.732;2023-04-03T11:51:52;2.42;;;0.82;;
43744;SDS011;29359;53.048;8.732;2023-04-03T11:53:54;0.77;;;0.60;;
43744;SDS011;29359;53.048;8.732;2023-04-03T12:00:41;2.88;;;0.63;;
43744;SDS011;29359;53.048;8.732;2023-04-03T12:02:42;5.43;;;1.00;;
43744;SDS011;29359;53.048;8.732;2023-04-03T12:07:30;3.00;;;1.30;;
43744;SDS011;29359;53.048;8.732;2023-04-03T12:09:54;1.60;;;0.65;;
43744;SDS011;29359;53.048;8.732;2023-04-03T12:12:00;3.67;;;0.82;;
43744;SDS011;29359;53.048;8.732;2023-04-03T12:14:22;2.20;;;0.60;;
43744;SDS011;29359;53.048;8.732;2023-04-03T12:16:30;3.08;;;0.88;;
43744;SDS011;29359;53.048;8.732;2023-04-03T12:20:53;1.13;;;0.60;;
43744;SDS011;29359;53.048;8.732;2023-04-03T12:25:50;1.30;;;0.88;;
43744;SDS011;29359;53.048;8.732;2023-04-03T12:27:52;1.80;;;0.68;;
43744;SDS011;29359;53.048;8.732;2023-04-03T12:30:03;1.73;;;0.80;;
43744;SDS011;29359;53.048;8.732;2023-04-03T12:39:06;2.20;;;0.63;;
43744;SDS011;29359;53.048;8.732;2023-04-03T12:42:02;4.45;;;0.80;;
43744;SDS011;29359;53.048;8.732;2023-04-03T12:48:12;0.77;;;0.63;;
43744;SDS011;29359;53.048;8.732;2023-04-03T12:50:38;2.30;;;0.98;;
43744;SDS011;29359;53.048;8.732;2023-04-03T12:52:39;2.20;;;0.82;;
43744;SDS011;29359;53.048;8.732;2023-04-03T12:54:46;2.55;;;1.13;;
43744;SDS011;29359;53.048;8.732;2023-04-03T12:56:49;2.55;;;1.02;;
43744;SDS011;29359;53.048;8.732;2023-04-03T12:58:52;2.78;;;0.85;;
43744;SDS011;29359;53.048;8.732;2023-04-03T13:01:14;1.33;;;0.80;;
43744;SDS011;29359;53.048;8.732;2023-04-03T13:03:23;3.78;;;0.90;;
43744;SDS011;29359;53.048;8.732;2023-04-03T13:07:30;0.95;;;0.70;;
43744;SDS011;29359;53.048;8.732;2023-04-03T13:09:34;2.58;;;0.80;;
43744;SDS011;29359;53.048;8.732;2023-04-03T13:11:37;1.60;;;0.80;;
43744;SDS011;29359;53.048;8.732;2023-04-03T13:14:04;1.85;;;0.70;;
43744;SDS011;29359;53.048;8.732;2023-04-03T13:16:10;1.48;;;1.08;;
43744;SDS011;29359;53.048;8.732;2023-04-03T13:18:32;3.63;;;1.15;;
43744;SDS011;29359;53.048;8.732;2023-04-03T13:20:35;2.58;;;0.90;;
43744;SDS011;29359;53.048;8.732;2023-04-03T13:22:40;4.28;;;1.67;;
43744;SDS011;29359;53.048;8.732;2023-04-03T13:24:58;2.67;;;0.93;;
43744;SDS011;29359;53.048;8.732;2023-04-03T13:27:04;1.50;;;1.02;;
43744;SDS011;29359;53.048;8.732;2023-04-03T13:29:14;6.13;;;1.10;;
43744;SDS011;29359;53.048;8.732;2023-04-03T13:31:34;1.02;;;0.75;;
43744;SDS011;29359;53.048;8.732;2023-04-03T13:33:53;1.80;;;0.70;;
43744;SDS011;29359;53.048;8.732;2023-04-03T13:36:02;1.77;;;0.70;;
43744;SDS011;29359;53.048;8.732;2023-04-03T13:40:18;1.63;;;0.90;;
43744;SDS011;29359;53.048;8.732;2023-04-03T13:42:25;2.33;;;0.80;;
43744;SDS011;29359;53.048;8.732;2023-04-03T13:44:30;2.53;;;0.90;;
43744;SDS011;29359;53.048;8.732;2023-04-03T13:46:36;2.40;;;0.93;;
43744;SDS011;29359;53.048;8.732;2023-04-03T13:53:03;6.50;;;0.93;;
43744;SDS011;29359;53.048;8.732;2023-04-03T13:57:35;3.38;;;0.82;;
43744;SDS011;29359;53.048;8.732;2023-04-03T13:59:37;1.48;;;0.70;;
43744;SDS011;29359;53.048;8.732;2023-04-03T14:06:34;2.80;;;0.77;;
43744;SDS011;29359;53.048;8.732;2023-04-03T14:08:37;1.67;;;0.88;;
43744;SDS011;29359;53.048;8.732;2023-04-03T14:10:44;1.48;;;0.80;;
43744;SDS011;29359;53.048;8.732;2023-04-03T14:12:46;1.73;;;0.68;;
43744;SDS011;29359;53.048;8.732;2023-04-03T14:14:47;3.10;;;0.98;;
43744;SDS011;29359;53.048;8.732;2023-04-03T14:16:56;2.22;;;0.88;;